sensor_id;sensor_type;location;lat;lon;timestamp;P1;P4;P2;P0;N10;N4;N25;N1;N05;TS
71522;SPS30;59343;51.102;5.884;2023-09-19T00:03:00;3.56;3.25;2.64;1.81;14.49;14.47;14.33;13.55;10.68;0.74
71522;SPS30;59343;51.102;5.884;2023-09-19T00:06:11;3.70;3.38;2.77;1.92;15.40;15.37;15.23;14.45;11.45;0.72
71522;SPS30;59343;51.102;5.884;2023-09-19T00:09:05;3.88;3.55;2.91;2.01;16.14;16.11;15.97;15.14;11.99;0.72
71522;SPS30;59343;51.102;5.884;2023-09-19T00:33:59;3.66;3.35;2.76;1.94;15.56;15.53;15.40;14.64;11.67;0.72
71522;SPS30;59343;51.102;5.884;2023-09-19T00:38:30;3.56;3.27;2.70;1.90;15.23;15.21;15.08;14.34;11.45;0.72
71522;SPS30;59343;51.102;5.884;2023-09-19T00:46:12;3.29;3.04;2.55;1.86;14.86;14.84;14.73;14.09;11.40;0.69
71522;SPS30;59343;51.102;5.884;2023-09-19T01:02:52;3.67;3.37;2.78;1.96;15.69;15.67;15.53;14.77;11.79;0.71
71522;SPS30;59343;51.102;5.884;2023-09-19T01:19:21;3.41;3.14;2.61;1.87;14.95;14.93;14.81;14.13;11.34;0.68
71522;SPS30;59343;51.102;5.884;2023-09-19T01:25:33;3.55;3.27;2.72;1.95;15.65;15.63;15.50;14.80;11.91;0.69
71522;SPS30;59343;51.102;5.884;2023-09-19T01:28:30;3.61;3.31;2.74;1.94;15.51;15.48;15.35;14.61;11.68;0.70
71522;SPS30;59343;51.102;5.884;2023-09-19T01:31:21;3.66;3.35;2.75;1.91;15.32;15.29;15.15;14.38;11.42;0.72
71522;SPS30;59343;51.102;5.884;2023-09-19T01:33:56;3.97;3.62;2.95;2.03;16.25;16.23;16.07;15.21;12.01;0.72
71522;SPS30;59343;51.102;5.884;2023-09-19T01:36:36;3.43;3.15;2.59;1.81;14.48;14.46;14.33;13.61;10.83;0.71
71522;SPS30;59343;51.102;5.884;2023-09-19T01:39:04;3.54;3.25;2.68;1.89;15.14;15.12;14.99;14.26;11.38;0.71
71522;SPS30;59343;51.102;5.884;2023-09-19T01:41:54;3.36;3.09;2.54;1.79;14.34;14.32;14.20;13.50;10.77;0.72
71522;SPS30;59343;51.102;5.884;2023-09-19T01:44:33;3.43;3.15;2.60;1.82;14.62;14.59;14.47;13.75;10.97;0.71
71522;SPS30;59343;51.102;5.884;2023-09-19T01:47:35;2.99;2.75;2.28;1.61;12.92;12.90;12.79;12.18;9.75;0.71
71522;SPS30;59343;51.102;5.884;2023-09-19T01:50:32;3.65;3.34;2.74;1.90;15.20;15.17;15.03;14.25;11.29;0.73
71522;SPS30;59343;51.102;5.884;2023-09-19T01:53:10;3.78;3.46;2.84;1.97;15.77;15.74;15.60;14.79;11.73;0.74
71522;SPS30;59343;51.102;5.884;2023-09-19T01:55:47;3.50;3.20;2.61;1.80;14.40;14.37;14.24;13.48;10.65;0.74
71522;SPS30;59343;51.102;5.884;2023-09-19T02:00:45;3.53;3.26;2.72;1.97;15.76;15.74;15.62;14.93;12.05;0.71
71522;SPS30;59343;51.102;5.884;2023-09-19T02:03:18;3.51;3.25;2.73;2.00;16.01;15.99;15.87;15.21;12.33;0.68
71522;SPS30;59343;51.102;5.884;2023-09-19T02:05:49;3.61;3.33;2.79;2.03;16.27;16.25;16.12;15.43;12.48;0.68
71522;SPS30;59343;51.102;5.884;2023-09-19T02:08:17;3.71;3.40;2.79;1.94;15.51;15.48;15.35;14.56;11.55;0.74
71522;SPS30;59343;51.102;5.884;2023-09-19T02:10:45;3.43;3.15;2.61;1.84;14.75;14.72;14.60;13.89;11.10;0.72
71522;SPS30;59343;51.102;5.884;2023-09-19T02:13:15;3.55;3.25;2.65;1.83;14.67;14.64;14.51;13.75;10.87;0.74
71522;SPS30;59343;51.102;5.884;2023-09-19T02:15:43;3.55;3.27;2.70;1.91;15.34;15.31;15.19;14.46;11.57;0.72
71522;SPS30;59343;51.102;5.884;2023-09-19T02:18:15;3.70;3.41;2.84;2.04;16.32;16.30;16.17;15.43;12.42;0.70
71522;SPS30;59343;51.102;5.884;2023-09-19T02:20:41;3.48;3.21;2.70;1.96;15.70;15.68;15.56;14.89;12.04;0.69
71522;SPS30;59343;51.102;5.884;2023-09-19T02:23:09;3.48;3.23;2.74;2.02;16.19;16.16;16.05;15.41;12.55;0.67
71522;SPS30;59343;51.102;5.884;2023-09-19T02:25:36;3.59;3.31;2.78;2.02;16.14;16.11;15.99;15.30;12.37;0.68
71522;SPS30;59343;51.102;5.884;2023-09-19T02:28:03;3.78;3.48;2.90;2.07;16.61;16.59;16.45;15.70;12.63;0.69
71522;SPS30;59343;51.102;5.884;2023-09-19T02:30:35;3.34;3.08;2.57;1.84;14.76;14.74;14.62;13.96;11.23;0.69
71522;SPS30;59343;51.102;5.884;2023-09-19T02:33:02;3.58;3.30;2.75;1.98;15.83;15.81;15.68;14.97;12.05;0.68
71522;SPS30;59343;51.102;5.884;2023-09-19T02:35:28;3.61;3.33;2.77;1.98;15.85;15.83;15.70;14.98;12.04;0.69
71522;SPS30;59343;51.102;5.884;2023-09-19T02:38:01;3.76;3.45;2.83;1.98;15.85;15.82;15.68;14.89;11.84;0.71
71522;SPS30;59343;51.102;5.884;2023-09-19T02:40:29;3.95;3.61;2.95;2.03;16.23;16.20;16.05;15.20;12.00;0.72
71522;SPS30;59343;51.102;5.884;2023-09-19T02:42:55;3.83;3.50;2.86;1.97;15.78;15.75;15.60;14.78;11.68;0.72
71522;SPS30;59343;51.102;5.884;2023-09-19T02:45:24;3.37;3.10;2.57;1.83;14.68;14.65;14.53;13.86;11.11;0.70
71522;SPS30;59343;51.102;5.884;2023-09-19T02:47:51;3.39;3.13;2.63;1.91;15.32;15.29;15.18;14.53;11.76;0.69
71522;SPS30;59343;51.102;5.884;2023-09-19T02:50:17;3.26;3.00;2.50;1.79;14.37;14.35;14.23;13.59;10.93;0.71
71522;SPS30;59343;51.102;5.884;2023-09-19T02:52:44;3.63;3.33;2.74;1.93;15.46;15.43;15.30;14.55;11.60;0.71
71522;SPS30;59343;51.102;5.884;2023-09-19T02:55:15;3.67;3.35;2.73;1.87;15.01;14.99;14.84;14.05;11.08;0.72
71522;SPS30;59343;51.102;5.884;2023-09-19T02:57:50;3.58;3.28;2.69;1.88;15.06;15.03;14.90;14.15;11.24;0.72
71522;SPS30;59343;51.102;5.884;2023-09-19T03:00:20;3.51;3.24;2.71;1.96;15.66;15.64;15.52;14.83;11.96;0.71
71522;SPS30;59343;51.102;5.884;2023-09-19T03:02:49;3.82;3.50;2.86;1.98;15.85;15.82;15.68;14.86;11.77;0.74
71522;SPS30;59343;51.102;5.884;2023-09-19T03:05:25;3.76;3.44;2.79;1.91;15.33;15.30;15.15;14.33;11.29;0.75
71522;SPS30;59343;51.102;5.884;2023-09-19T03:07:52;3.77;3.44;2.78;1.89;15.13;15.10;14.96;14.12;11.08;0.76
71522;SPS30;59343;51.102;5.884;2023-09-19T03:10:22;4.00;3.64;2.93;1.96;15.71;15.68;15.52;14.61;11.39;0.78
71522;SPS30;59343;51.102;5.884;2023-09-19T03:12:51;3.99;3.63;2.93;1.97;15.82;15.79;15.63;14.73;11.51;0.79
71522;SPS30;59343;51.102;5.884;2023-09-19T03:15:18;3.70;3.37;2.71;1.82;14.60;14.57;14.42;13.58;10.60;0.78
71522;SPS30;59343;51.102;5.884;2023-09-19T03:17:49;4.20;3.81;3.05;2.02;16.20;16.16;15.99;15.02;11.64;0.79
71522;SPS30;59343;51.102;5.884;2023-09-19T03:20:20;4.03;3.67;2.95;1.98;15.89;15.86;15.69;14.78;11.54;0.78
71522;SPS30;59343;51.102;5.884;2023-09-19T03:22:51;3.79;3.46;2.82;1.93;15.50;15.47;15.32;14.50;11.44;0.76
71522;SPS30;59343;51.102;5.884;2023-09-19T03:25:17;3.59;3.31;2.75;1.97;15.81;15.79;15.66;14.95;12.02;0.73
71522;SPS30;59343;51.102;5.884;2023-09-19T03:27:48;3.72;3.43;2.88;2.09;16.74;16.71;16.59;15.87;12.83;0.71
71522;SPS30;59343;51.102;5.884;2023-09-19T03:30:14;3.60;3.33;2.81;2.06;16.46;16.44;16.32;15.64;12.70;0.71
71522;SPS30;59343;51.102;5.884;2023-09-19T03:32:46;3.67;3.40;2.88;2.13;17.04;17.01;16.89;16.22;13.20;0.70
71522;SPS30;59343;51.102;5.884;2023-09-19T03:35:16;3.47;3.21;2.70;1.97;15.80;15.78;15.66;15.00;12.16;0.70
71522;SPS30;59343;51.102;5.884;2023-09-19T03:37:43;3.56;3.28;2.73;1.96;15.69;15.67;15.54;14.84;11.93;0.71
71522;SPS30;59343;51.102;5.884;2023-09-19T03:40:10;3.28;3.02;2.49;1.76;14.10;14.08;13.96;13.28;10.61;0.73
71522;SPS30;59343;51.102;5.884;2023-09-19T03:42:40;3.66;3.35;2.75;1.91;15.29;15.26;15.12;14.35;11.38;0.74
71522;SPS30;59343;51.102;5.884;2023-09-19T03:45:11;3.71;3.38;2.75;1.88;15.07;15.04;14.90;14.09;11.09;0.75
71522;SPS30;59343;51.102;5.884;2023-09-19T03:47:38;3.68;3.37;2.77;1.93;15.47;15.45;15.31;14.54;11.55;0.74
71522;SPS30;59343;51.102;5.884;2023-09-19T03:50:07;3.64;3.34;2.76;1.94;15.56;15.53;15.40;14.65;11.69;0.73
71522;SPS30;59343;51.102;5.884;2023-09-19T03:52:36;3.44;3.17;2.62;1.86;14.93;14.90;14.78;14.08;11.28;0.73
71522;SPS30;59343;51.102;5.884;2023-09-19T03:55:03;4.14;3.78;3.09;2.13;17.06;17.03;16.87;15.98;12.63;0.74
71522;SPS30;59343;51.102;5.884;2023-09-19T03:57:30;4.32;3.93;3.17;2.12;17.00;16.97;16.80;15.82;12.34;0.76
71522;SPS30;59343;51.102;5.884;2023-09-19T03:59:56;3.75;3.43;2.80;1.94;15.54;15.51;15.37;14.57;11.53;0.72
71522;SPS30;59343;51.102;5.884;2023-09-19T04:02:22;3.47;3.19;2.65;1.88;15.07;15.05;14.93;14.22;11.40;0.71
71522;SPS30;59343;51.102;5.884;2023-09-19T04:04:50;3.76;3.46;2.87;2.05;16.40;16.37;16.24;15.48;12.42;0.72
71522;SPS30;59343;51.102;5.884;2023-09-19T04:07:17;3.73;3.42;2.82;1.97;15.82;15.79;15.65;14.88;11.85;0.75
71522;SPS30;59343;51.102;5.884;2023-09-19T04:09:48;3.96;3.60;2.90;1.94;15.59;15.56;15.40;14.51;11.32;0.78
71522;SPS30;59343;51.102;5.884;2023-09-19T04:12:14;4.61;4.17;3.31;2.15;17.21;17.17;16.98;15.88;12.19;0.78
71522;SPS30;59343;51.102;5.884;2023-09-19T04:14:42;4.10;3.72;2.99;1.98;15.88;15.84;15.68;14.73;11.43;0.77
71522;SPS30;59343;51.102;5.884;2023-09-19T04:17:09;4.09;3.72;2.98;1.98;15.86;15.83;15.66;14.72;11.43;0.78
71522;SPS30;59343;51.102;5.884;2023-09-19T04:19:36;4.18;3.81;3.08;2.09;16.78;16.74;16.58;15.65;12.28;0.75
71522;SPS30;59343;51.102;5.884;2023-09-19T04:22:04;4.09;3.72;3.00;2.02;16.17;16.14;15.97;15.05;11.76;0.76
71522;SPS30;59343;51.102;5.884;2023-09-19T04:24:31;4.10;3.73;3.00;2.00;16.02;15.99;15.83;14.89;11.59;0.76
71522;SPS30;59343;51.102;5.884;2023-09-19T04:26:58;4.40;3.98;3.15;2.04;16.39;16.35;16.16;15.11;11.59;0.78
71522;SPS30;59343;51.102;5.884;2023-09-19T04:29:27;4.41;4.00;3.20;2.11;16.91;16.87;16.69;15.66;12.12;0.76
71522;SPS30;59343;51.102;5.884;2023-09-19T04:31:55;4.61;4.18;3.33;2.18;17.50;17.46;17.27;16.18;12.48;0.77
71522;SPS30;59343;51.102;5.884;2023-09-19T04:34:24;4.57;4.14;3.31;2.17;17.44;17.40;17.21;16.15;12.47;0.76
71522;SPS30;59343;51.102;5.884;2023-09-19T04:36:52;4.96;4.47;3.50;2.21;17.71;17.67;17.45;16.22;12.27;0.80
71522;SPS30;59343;51.102;5.884;2023-09-19T04:39:18;5.22;4.69;3.65;2.27;18.19;18.14;17.91;16.58;12.43;0.80
71522;SPS30;59343;51.102;5.884;2023-09-19T04:41:44;4.84;4.36;3.43;2.19;17.57;17.53;17.32;16.13;12.27;0.80
71522;SPS30;59343;51.102;5.884;2023-09-19T04:44:13;4.19;3.80;3.03;1.99;15.97;15.94;15.77;14.79;11.42;0.78
71522;SPS30;59343;51.102;5.884;2023-09-19T04:46:41;4.91;4.45;3.55;2.33;18.71;18.67;18.46;17.31;13.37;0.78
71522;SPS30;59343;51.102;5.884;2023-09-19T04:49:08;4.75;4.29;3.38;2.17;17.41;17.37;17.17;16.02;12.22;0.78
71522;SPS30;59343;51.102;5.884;2023-09-19T04:51:34;4.33;3.91;3.09;1.99;15.95;15.91;15.73;14.68;11.22;0.79
71522;SPS30;59343;51.102;5.884;2023-09-19T04:54:01;4.55;4.11;3.26;2.12;16.97;16.94;16.75;15.66;12.02;0.78
71522;SPS30;59343;51.102;5.884;2023-09-19T04:56:31;4.05;3.68;2.96;1.98;15.86;15.83;15.67;14.75;11.48;0.75
71522;SPS30;59343;51.102;5.884;2023-09-19T04:59:13;4.16;3.78;3.05;2.04;16.35;16.32;16.15;15.20;11.85;0.74
71522;SPS30;59343;51.102;5.884;2023-09-19T05:09:25;4.46;4.02;3.16;2.01;16.11;16.07;15.88;14.78;11.22;0.80
71522;SPS30;59343;51.102;5.884;2023-09-19T05:59:00;4.24;3.83;3.01;1.93;15.45;15.42;15.24;14.20;10.81;0.78
71522;SPS30;59343;51.102;5.884;2023-09-19T06:01:38;4.43;3.99;3.13;1.98;15.88;15.84;15.65;14.55;11.02;0.78
71522;SPS30;59343;51.102;5.884;2023-09-19T06:04:08;3.80;3.44;2.73;1.77;14.20;14.17;14.01;13.10;10.05;0.76
71522;SPS30;59343;51.102;5.884;2023-09-19T06:06:36;3.76;3.40;2.70;1.76;14.11;14.08;13.92;13.03;10.02;0.77
71522;SPS30;59343;51.102;5.884;2023-09-19T06:09:19;4.13;3.77;3.07;2.11;16.88;16.85;16.69;15.79;12.45;0.75
71522;SPS30;59343;51.102;5.884;2023-09-19T06:11:48;3.73;3.41;2.78;1.92;15.36;15.33;15.19;14.39;11.37;0.76
71522;SPS30;59343;51.102;5.884;2023-09-19T06:14:20;4.31;3.91;3.14;2.08;16.70;16.67;16.50;15.51;12.04;0.78
71522;SPS30;59343;51.102;5.884;2023-09-19T06:16:57;3.78;3.41;2.71;1.75;14.04;14.01;13.85;12.95;9.92;0.80
71522;SPS30;59343;51.102;5.884;2023-09-19T06:19:34;4.21;3.82;3.04;1.98;15.90;15.86;15.69;14.69;11.31;0.78
71522;SPS30;59343;51.102;5.884;2023-09-19T06:22:03;3.77;3.42;2.75;1.83;14.70;14.67;14.52;13.66;10.62;0.77
71522;SPS30;59343;51.102;5.884;2023-09-19T06:24:36;3.63;3.29;2.64;1.74;13.98;13.95;13.80;12.96;10.04;0.76
71522;SPS30;59343;51.102;5.884;2023-09-19T06:27:04;3.64;3.31;2.66;1.78;14.25;14.22;14.07;13.24;10.31;0.75
71522;SPS30;59343;51.102;5.884;2023-09-19T06:29:39;4.03;3.67;2.96;1.99;15.99;15.96;15.80;14.90;11.65;0.74
71522;SPS30;59343;51.102;5.884;2023-09-19T06:32:17;3.66;3.34;2.70;1.83;14.65;14.62;14.47;13.66;10.71;0.74
71522;SPS30;59343;51.102;5.884;2023-09-19T06:34:51;4.17;3.78;3.03;2.01;16.15;16.12;15.95;14.99;11.64;0.76
71522;SPS30;59343;51.102;5.884;2023-09-19T06:37:28;3.71;3.37;2.70;1.79;14.38;14.35;14.20;13.35;10.36;0.76
71522;SPS30;59343;51.102;5.884;2023-09-19T06:40:23;4.11;3.72;2.97;1.95;15.62;15.58;15.41;14.45;11.15;0.77
71522;SPS30;59343;51.102;5.884;2023-09-19T06:42:57;4.22;3.83;3.07;2.04;16.36;16.33;16.16;15.19;11.79;0.77
71522;SPS30;59343;51.102;5.884;2023-09-19T06:45:30;4.38;3.96;3.15;2.05;16.44;16.40;16.22;15.18;11.67;0.78
71522;SPS30;59343;51.102;5.884;2023-09-19T06:48:02;4.64;4.18;3.29;2.10;16.85;16.81;16.61;15.48;11.78;0.80
71522;SPS30;59343;51.102;5.884;2023-09-19T06:50:40;4.96;4.48;3.53;2.27;18.21;18.17;17.96;16.76;12.79;0.78
71522;SPS30;59343;51.102;5.884;2023-09-19T06:53:13;4.63;4.20;3.36;2.21;17.74;17.71;17.51;16.44;12.71;0.76
71522;SPS30;59343;51.102;5.884;2023-09-19T06:55:50;4.25;3.86;3.10;2.07;16.57;16.54;16.37;15.39;11.97;0.76
71522;SPS30;59343;51.102;5.884;2023-09-19T06:58:25;4.06;3.69;2.95;1.95;15.63;15.60;15.43;14.49;11.23;0.76
71522;SPS30;59343;51.102;5.884;2023-09-19T07:01:28;4.23;3.84;3.06;2.01;16.11;16.07;15.90;14.90;11.51;0.78
71522;SPS30;59343;51.102;5.884;2023-09-19T07:04:06;4.65;4.21;3.37;2.23;17.86;17.82;17.63;16.56;12.82;0.78
71522;SPS30;59343;51.102;5.884;2023-09-19T07:06:36;4.07;3.71;3.01;2.05;16.41;16.38;16.22;15.32;12.03;0.75
71522;SPS30;59343;51.102;5.884;2023-09-19T07:09:11;4.00;3.63;2.90;1.92;15.38;15.34;15.18;14.25;11.04;0.77
71522;SPS30;59343;51.102;5.884;2023-09-19T07:11:42;3.81;3.45;2.75;1.80;14.45;14.42;14.26;13.37;10.31;0.77
71522;SPS30;59343;51.102;5.884;2023-09-19T07:14:16;4.24;3.85;3.07;2.02;16.22;16.19;16.01;15.03;11.62;0.77
71522;SPS30;59343;51.102;5.884;2023-09-19T07:16:48;3.68;3.32;2.62;1.68;13.46;13.43;13.27;12.37;9.43;0.80
71522;SPS30;59343;51.102;5.884;2023-09-19T07:19:16;3.95;3.57;2.84;1.84;14.79;14.76;14.60;13.66;10.49;0.78
71522;SPS30;59343;51.102;5.884;2023-09-19T07:21:47;3.76;3.42;2.75;1.84;14.77;14.74;14.59;13.74;10.72;0.76
71522;SPS30;59343;51.102;5.884;2023-09-19T07:24:16;4.56;4.13;3.29;2.15;17.23;17.20;17.01;15.93;12.27;0.77
71522;SPS30;59343;51.102;5.884;2023-09-19T07:26:48;3.84;3.48;2.80;1.86;14.89;14.86;14.71;13.83;10.74;0.76
71522;SPS30;59343;51.102;5.884;2023-09-19T07:29:16;3.81;3.46;2.77;1.83;14.68;14.65;14.50;13.61;10.55;0.77
71522;SPS30;59343;51.102;5.884;2023-09-19T07:31:50;3.64;3.30;2.63;1.73;13.89;13.86;13.71;12.86;9.94;0.77
71522;SPS30;59343;51.102;5.884;2023-09-19T07:34:27;3.72;3.37;2.68;1.75;14.04;14.01;13.85;12.97;9.99;0.77
71522;SPS30;59343;51.102;5.884;2023-09-19T07:37:01;4.48;4.04;3.18;2.02;16.21;16.18;15.98;14.88;11.30;0.78
71522;SPS30;59343;51.102;5.884;2023-09-19T07:39:30;4.26;3.84;3.04;1.95;15.67;15.63;15.45;14.42;11.02;0.76
71522;SPS30;59343;51.102;5.884;2023-09-19T07:41:57;4.19;3.79;3.03;1.99;15.97;15.94;15.77;14.79;11.43;0.77
71522;SPS30;59343;51.102;5.884;2023-09-19T07:44:24;3.88;3.53;2.85;1.91;15.35;15.32;15.16;14.29;11.17;0.75
71522;SPS30;59343;51.102;5.884;2023-09-19T07:46:58;4.03;3.63;2.86;1.82;14.62;14.58;14.41;13.42;10.20;0.79
71522;SPS30;59343;51.102;5.884;2023-09-19T07:49:28;4.12;3.73;2.96;1.92;15.38;15.35;15.17;14.19;10.88;0.77
71522;SPS30;59343;51.102;5.884;2023-09-19T07:51:55;3.81;3.46;2.78;1.85;14.86;14.83;14.67;13.80;10.73;0.75
71522;SPS30;59343;51.102;5.884;2023-09-19T07:54:26;3.93;3.56;2.85;1.88;15.06;15.02;14.86;13.95;10.80;0.77
71522;SPS30;59343;51.102;5.884;2023-09-19T07:57:43;4.06;3.69;2.97;1.98;15.89;15.85;15.69;14.77;11.50;0.77
71522;SPS30;59343;51.102;5.884;2023-09-19T08:00:23;3.57;3.24;2.61;1.75;14.01;13.98;13.84;13.03;10.16;0.76
71522;SPS30;59343;51.102;5.884;2023-09-19T08:02:52;3.46;3.15;2.55;1.73;13.87;13.85;13.71;12.95;10.16;0.77
71522;SPS30;59343;51.102;5.884;2023-09-19T08:05:20;3.36;3.05;2.45;1.63;13.03;13.00;12.87;12.09;9.39;0.78
71522;SPS30;59343;51.102;5.884;2023-09-19T08:08:00;3.73;3.38;2.70;1.77;14.22;14.19;14.04;13.17;10.17;0.79
71522;SPS30;59343;51.102;5.884;2023-09-19T08:10:28;3.89;3.51;2.79;1.81;14.50;14.47;14.31;13.38;10.27;0.80
71522;SPS30;59343;51.102;5.884;2023-09-19T08:13:07;4.67;4.21;3.32;2.12;17.00;16.96;16.76;15.62;11.89;0.81
71522;SPS30;59343;51.102;5.884;2023-09-19T08:15:48;3.92;3.54;2.81;1.81;14.54;14.51;14.35;13.41;10.27;0.80
71522;SPS30;59343;51.102;5.884;2023-09-19T08:19:02;4.29;3.88;3.08;1.99;15.98;15.95;15.77;14.74;11.30;0.79
71522;SPS30;59343;51.102;5.884;2023-09-19T08:21:58;3.94;3.55;2.80;1.79;14.36;14.33;14.16;13.21;10.06;0.80
71522;SPS30;59343;51.102;5.884;2023-09-19T08:24:35;4.26;3.86;3.07;2.01;16.09;16.06;15.88;14.87;11.46;0.80
71522;SPS30;59343;51.102;5.884;2023-09-19T08:27:11;3.49;3.16;2.53;1.67;13.36;13.33;13.19;12.37;9.57;0.78
71522;SPS30;59343;51.102;5.884;2023-09-19T08:29:47;3.71;3.36;2.68;1.75;14.04;14.01;13.86;12.98;10.01;0.78
71522;SPS30;59343;51.102;5.884;2023-09-19T08:32:20;4.03;3.65;2.89;1.88;15.06;15.02;14.85;13.89;10.66;0.78
71522;SPS30;59343;51.102;5.884;2023-09-19T08:35:02;3.80;3.44;2.74;1.79;14.33;14.30;14.14;13.24;10.19;0.78
71522;SPS30;59343;51.102;5.884;2023-09-19T08:37:31;4.04;3.66;2.92;1.92;15.36;15.33;15.16;14.22;10.98;0.77
71522;SPS30;59343;51.102;5.884;2023-09-19T08:40:00;3.82;3.48;2.80;1.87;15.01;14.98;14.82;13.96;10.88;0.75
71522;SPS30;59343;51.102;5.884;2023-09-19T08:42:28;3.74;3.41;2.75;1.85;14.81;14.78;14.63;13.79;10.77;0.76
71522;SPS30;59343;51.102;5.884;2023-09-19T08:44:57;3.85;3.48;2.76;1.80;14.43;14.39;14.23;13.32;10.24;0.78
71522;SPS30;59343;51.102;5.884;2023-09-19T08:47:36;3.96;3.59;2.87;1.89;15.19;15.16;14.99;14.08;10.90;0.78
71522;SPS30;59343;51.102;5.884;2023-09-19T08:50:31;3.76;3.41;2.73;1.80;14.47;14.44;14.29;13.42;10.40;0.76
71522;SPS30;59343;51.102;5.884;2023-09-19T08:53:10;4.12;3.74;2.98;1.96;15.70;15.67;15.50;14.53;11.22;0.76
71522;SPS30;59343;51.102;5.884;2023-09-19T08:55:41;4.40;3.99;3.17;2.07;16.60;16.57;16.38;15.34;11.81;0.76
71522;SPS30;59343;51.102;5.884;2023-09-19T08:58:14;3.78;3.43;2.75;1.82;14.57;14.54;14.39;13.51;10.47;0.74
71522;SPS30;59343;51.102;5.884;2023-09-19T09:00:46;3.64;3.31;2.66;1.78;14.26;14.23;14.09;13.26;10.33;0.74
71522;SPS30;59343;51.102;5.884;2023-09-19T09:03:16;3.64;3.30;2.63;1.73;13.86;13.84;13.69;12.84;9.92;0.75
71522;SPS30;59343;51.102;5.884;2023-09-19T09:23:16;4.00;3.63;2.90;1.91;15.33;15.30;15.13;14.20;10.99;0.80
71522;SPS30;59343;51.102;5.884;2023-09-19T09:25:54;3.95;3.56;2.81;1.80;14.47;14.44;14.27;13.32;10.16;0.82
71522;SPS30;59343;51.102;5.884;2023-09-19T09:28:35;4.02;3.64;2.88;1.87;15.00;14.97;14.80;13.84;10.61;0.81
71522;SPS30;59343;51.102;5.884;2023-09-19T09:31:23;4.16;3.77;2.99;1.94;15.59;15.56;15.39;14.40;11.06;0.80
71522;SPS30;59343;51.102;5.884;2023-09-19T09:34:11;4.39;3.93;3.03;1.85;14.82;14.78;14.58;13.44;9.96;0.84
71522;SPS30;59343;51.102;5.884;2023-09-19T09:36:42;4.29;3.85;3.01;1.89;15.17;15.14;14.95;13.88;10.46;0.80
71522;SPS30;59343;51.102;5.884;2023-09-19T09:39:15;4.32;3.90;3.07;1.97;15.81;15.77;15.59;14.54;11.09;0.78
71522;SPS30;59343;51.102;5.884;2023-09-19T09:41:57;3.95;3.59;2.88;1.91;15.35;15.32;15.16;14.26;11.08;0.76
71522;SPS30;59343;51.102;5.884;2023-09-19T09:44:30;4.13;3.75;2.99;1.97;15.79;15.76;15.59;14.63;11.31;0.78
71522;SPS30;59343;51.102;5.884;2023-09-19T09:46:59;4.06;3.70;2.99;2.01;16.13;16.09;15.93;15.02;11.75;0.76
71522;SPS30;59343;51.102;5.884;2023-09-19T09:50:03;3.99;3.63;2.93;1.96;15.72;15.69;15.53;14.63;11.41;0.77
71522;SPS30;59343;51.102;5.884;2023-09-19T09:52:44;3.60;3.28;2.67;1.83;14.69;14.67;14.53;13.75;10.84;0.75
71522;SPS30;59343;51.102;5.884;2023-09-19T09:56:02;3.41;3.13;2.58;1.81;14.52;14.50;14.37;13.67;10.90;0.73
71522;SPS30;59343;51.102;5.884;2023-09-19T09:59:03;3.57;3.28;2.72;1.93;15.49;15.46;15.34;14.61;11.70;0.71
71522;SPS30;59343;51.102;5.884;2023-09-19T10:02:01;3.50;3.22;2.68;1.91;15.29;15.26;15.14;14.44;11.58;0.71
71522;SPS30;59343;51.102;5.884;2023-09-19T10:05:15;3.58;3.30;2.74;1.95;15.63;15.61;15.48;14.76;11.84;0.70
71522;SPS30;59343;51.102;5.884;2023-09-19T10:11:43;3.94;3.58;2.88;1.92;15.42;15.39;15.23;14.33;11.16;0.75
71522;SPS30;59343;51.102;5.884;2023-09-19T10:23:12;3.42;3.16;2.64;1.92;15.34;15.32;15.20;14.54;11.74;0.71
71522;SPS30;59343;51.102;5.884;2023-09-19T10:27:17;3.01;2.80;2.39;1.80;14.41;14.39;14.30;13.77;11.29;0.68
71522;SPS30;59343;51.102;5.884;2023-09-19T10:30:11;3.48;3.23;2.76;2.06;16.52;16.49;16.39;15.77;12.91;0.71
71522;SPS30;59343;51.102;5.884;2023-09-19T10:43:48;3.43;3.18;2.68;1.96;15.68;15.65;15.54;14.89;12.08;0.69
71522;SPS30;59343;51.102;5.884;2023-09-19T10:47:50;3.39;3.16;2.71;2.05;16.39;16.37;16.27;15.68;12.88;0.66
71522;SPS30;59343;51.102;5.884;2023-09-19T10:50:22;3.24;3.02;2.59;1.95;15.63;15.61;15.51;14.95;12.28;0.67
71522;SPS30;59343;51.102;5.884;2023-09-19T10:52:49;3.38;3.14;2.66;1.98;15.82;15.80;15.69;15.07;12.30;0.68
71522;SPS30;59343;51.102;5.884;2023-09-19T10:55:32;3.04;2.84;2.45;1.87;14.93;14.91;14.82;14.31;11.79;0.66
71522;SPS30;59343;51.102;5.884;2023-09-19T10:58:08;3.08;2.87;2.45;1.84;14.75;14.74;14.64;14.10;11.56;0.67
71522;SPS30;59343;51.102;5.884;2023-09-19T11:00:52;3.87;3.56;2.95;2.09;16.75;16.73;16.59;15.80;12.65;0.72
71522;SPS30;59343;51.102;5.884;2023-09-19T11:03:30;3.55;3.26;2.69;1.90;15.20;15.17;15.04;14.31;11.43;0.71
71522;SPS30;59343;51.102;5.884;2023-09-19T11:09:53;3.58;3.28;2.71;1.90;15.23;15.21;15.07;14.33;11.42;0.72
71522;SPS30;59343;51.102;5.884;2023-09-19T11:28:38;3.21;2.98;2.53;1.88;15.04;15.02;14.92;14.33;11.70;0.70
71522;SPS30;59343;51.102;5.884;2023-09-19T11:30:57;2.97;2.75;2.33;1.72;13.77;13.76;13.66;13.11;10.67;0.70
71522;SPS30;59343;51.102;5.884;2023-09-19T11:33:28;3.12;2.88;2.41;1.75;14.00;13.98;13.87;13.27;10.72;0.71
71522;SPS30;59343;51.102;5.884;2023-09-19T11:41:41;2.55;2.37;2.02;1.50;12.03;12.02;11.94;11.48;9.38;0.67
71522;SPS30;59343;51.102;5.884;2023-09-19T11:51:57;2.58;2.38;1.99;1.43;11.47;11.45;11.36;10.86;8.75;0.70
71522;SPS30;59343;51.102;5.884;2023-09-19T12:03:10;3.01;2.73;2.18;1.43;11.49;11.46;11.34;10.64;8.22;0.75
71522;SPS30;59343;51.102;5.884;2023-09-19T12:20:55;2.57;2.37;1.96;1.40;11.19;11.17;11.08;10.56;8.47;0.72
71522;SPS30;59343;51.102;5.884;2023-09-19T12:27:47;2.71;2.51;2.12;1.56;12.49;12.48;12.39;11.88;9.66;0.69
71522;SPS30;59343;51.102;5.884;2023-09-19T12:35:53;2.03;1.89;1.60;1.19;9.57;9.55;9.49;9.12;7.45;0.68
71522;SPS30;59343;51.102;5.884;2023-09-19T12:43:49;2.37;2.17;1.77;1.23;9.83;9.81;9.72;9.21;7.29;0.72
71522;SPS30;59343;51.102;5.884;2023-09-19T12:47:12;1.72;1.59;1.34;0.98;7.87;7.86;7.80;7.48;6.07;0.68
71522;SPS30;59343;51.102;5.884;2023-09-19T12:50:15;1.70;1.57;1.32;0.96;7.71;7.70;7.64;7.32;5.93;0.69
71522;SPS30;59343;51.102;5.884;2023-09-19T12:56:59;1.64;1.52;1.29;0.96;7.68;7.67;7.62;7.32;5.97;0.68
71522;SPS30;59343;51.102;5.884;2023-09-19T13:06:03;1.73;1.61;1.38;1.05;8.39;8.38;8.33;8.03;6.61;0.66
71522;SPS30;59343;51.102;5.884;2023-09-19T13:09:07;1.42;1.32;1.14;0.87;6.94;6.93;6.89;6.64;5.47;0.66
71522;SPS30;59343;51.102;5.884;2023-09-19T13:16:23;1.78;1.64;1.35;0.96;7.68;7.66;7.60;7.23;5.78;0.72
71522;SPS30;59343;51.102;5.884;2023-09-19T13:22:51;1.55;1.43;1.20;0.86;6.91;6.90;6.85;6.54;5.27;0.69
71522;SPS30;59343;51.102;5.884;2023-09-19T13:30:00;1.59;1.46;1.21;0.86;6.87;6.86;6.80;6.48;5.19;0.71
71522;SPS30;59343;51.102;5.884;2023-09-19T13:33:10;1.55;1.42;1.18;0.83;6.68;6.67;6.62;6.30;5.04;0.70
71522;SPS30;59343;51.102;5.884;2023-09-19T13:41:00;1.37;1.27;1.07;0.78;6.27;6.26;6.22;5.96;4.84;0.68
71522;SPS30;59343;51.102;5.884;2023-09-19T13:44:50;1.26;1.17;0.98;0.72;5.73;5.72;5.68;5.44;4.40;0.69
71522;SPS30;59343;51.102;5.884;2023-09-19T13:47:37;1.66;1.54;1.31;0.97;7.75;7.74;7.68;7.38;6.01;0.68
71522;SPS30;59343;51.102;5.884;2023-09-19T13:51:18;1.53;1.42;1.20;0.89;7.11;7.10;7.05;6.77;5.52;0.67
71522;SPS30;59343;51.102;5.884;2023-09-19T13:53:48;1.25;1.17;1.00;0.75;6.02;6.02;5.98;5.76;4.73;0.65
71522;SPS30;59343;51.102;5.884;2023-09-19T13:56:19;1.58;1.47;1.25;0.94;7.49;7.49;7.44;7.16;5.86;0.65
71522;SPS30;59343;51.102;5.884;2023-09-19T13:58:50;1.25;1.16;0.99;0.74;5.92;5.91;5.87;5.64;4.61;0.65
71522;SPS30;59343;51.102;5.884;2023-09-19T14:04:45;1.39;1.29;1.10;0.82;6.58;6.57;6.53;6.28;5.14;0.65
71522;SPS30;59343;51.102;5.884;2023-09-19T14:11:40;1.59;1.46;1.22;0.87;7.00;6.99;6.93;6.62;5.33;0.68
71522;SPS30;59343;51.102;5.884;2023-09-19T14:14:07;1.34;1.24;1.03;0.74;5.96;5.95;5.91;5.65;4.55;0.69
71522;SPS30;59343;51.102;5.884;2023-09-19T14:20:13;1.54;1.43;1.21;0.89;7.12;7.11;7.06;6.77;5.51;0.67
71522;SPS30;59343;51.102;5.884;2023-09-19T14:22:40;1.43;1.33;1.13;0.84;6.69;6.68;6.64;6.38;5.20;0.67